createdAt,value
2023-01-01T00:00:34.222Z,0
2023-01-01T00:01:34.620Z,0
2023-01-01T00:02:41.790Z,0
2023-01-01T00:03:35.481Z,0
2023-01-01T00:04:35.441Z,0
2023-01-01T00:05:36.709Z,0
2023-01-01T00:06:37.452Z,0
2023-01-01T00:07:38.376Z,0
2023-01-01T00:08:39.325Z,0
2023-01-01T00:09:40.543Z,0
2023-01-01T00:10:40.822Z,0
2023-01-01T00:11:41.509Z,0
2023-01-01T00:12:41.728Z,0
2023-01-01T00:13:41.932Z,0
2023-01-01T00:14:42.139Z,0
2023-01-01T00:15:42.373Z,0
2023-01-01T00:16:43.936Z,0
2023-01-01T00:17:43.905Z,0
2023-01-01T00:18:44.888Z,0
2023-01-01T00:19:45.382Z,0
2023-01-01T00:20:51.588Z,0
2023-01-01T00:21:45.925Z,0
2023-01-01T00:23:11.003Z,0
2023-01-01T00:23:47.196Z,0
2023-01-01T00:24:47.131Z,0
2023-01-01T00:25:48.635Z,0
2023-01-01T00:26:52.153Z,0
2023-01-01T00:27:49.644Z,0
2023-01-01T00:28:49.859Z,0
2023-01-01T00:29:50.786Z,0
2023-01-01T00:30:52.041Z,0
2023-01-01T00:31:52.850Z,0
2023-01-01T00:33:01.418Z,0
2023-01-01T00:33:53.661Z,0
2023-01-01T00:34:54.148Z,0
2023-01-01T00:35:53.789Z,0
2023-01-01T00:36:55.316Z,0
2023-01-01T00:38:03.117Z,0
2023-01-01T00:38:56.052Z,0
2023-01-01T00:39:56.326Z,0
2023-01-01T00:40:56.257Z,0
2023-01-01T00:41:57.854Z,0
2023-01-01T00:42:58.092Z,0
2023-01-01T00:43:58.294Z,0
2023-01-01T00:44:59.228Z,0
2023-01-01T00:45:59.427Z,0
2023-01-01T00:47:00.683Z,0
2023-01-01T00:48:00.936Z,0
2023-01-01T00:49:01.597Z,0
2023-01-01T00:50:02.791Z,0
2023-01-01T00:51:03.719Z,0
2023-01-01T00:52:03.715Z,0
2023-01-01T00:53:04.695Z,0
2023-01-01T00:54:04.770Z,0
2023-01-01T00:55:05.968Z,0
2023-01-01T00:56:05.931Z,0
2023-01-01T00:57:07.563Z,0
2023-01-01T00:58:08.005Z,0
2023-01-01T00:59:19.152Z,0
2023-01-01T01:00:09.102Z,0
2023-01-01T01:01:09.876Z,0
2023-01-01T01:02:11.223Z,0
2023-01-01T01:03:10.780Z,0
2023-01-01T01:04:11.076Z,0
2023-01-01T01:05:12.366Z,0
2023-01-01T01:06:12.658Z,0
2023-01-01T01:07:12.349Z,0
2023-01-01T01:08:13.839Z,0
2023-01-01T01:09:13.775Z,0
2023-01-01T01:10:14.296Z,0
2023-01-01T01:11:14.540Z,0
2023-01-01T01:12:35.140Z,0
2023-01-01T01:13:14.813Z,0
2023-01-01T01:14:15.501Z,0
2023-01-01T01:15:16.751Z,0
2023-01-01T01:16:17.073Z,0
2023-01-01T01:17:17.461Z,0
2023-01-01T01:18:18.399Z,0
2023-01-01T01:19:18.696Z,0
2023-01-01T01:20:18.927Z,0
2023-01-01T01:21:19.608Z,0
2023-01-01T01:22:26.055Z,0
2023-01-01T01:23:21.191Z,0
2023-01-01T01:24:21.417Z,0
2023-01-01T01:25:21.351Z,0
2023-01-01T01:26:22.307Z,0
2023-01-01T01:27:23.328Z,0
2023-01-01T01:28:24.534Z,0
2023-01-01T01:29:24.171Z,0
2023-01-01T01:30:25.427Z,0
2023-01-01T01:31:26.076Z,0
2023-01-01T01:32:26.222Z,0
2023-01-01T01:33:26.454Z,0
2023-01-01T01:34:39.509Z,0
2023-01-01T01:35:28.001Z,0
2023-01-01T01:36:28.325Z,0
2023-01-01T01:37:28.612Z,0
2023-01-01T01:38:28.569Z,0
2023-01-01T01:39:29.489Z,0
2023-01-01T01:40:29.772Z,0
2023-01-01T01:41:43.881Z,0
2023-01-01T01:42:32.246Z,0
2023-01-01T01:43:32.181Z,0
2023-01-01T01:44:33.397Z,0
2023-01-01T01:45:44.112Z,0
2023-01-01T01:46:35.917Z,0
2023-01-01T01:47:35.911Z,0
2023-01-01T01:48:36.126Z,0
2023-01-01T01:49:36.332Z,0
2023-01-01T01:50:36.576Z,0
2023-01-01T01:51:36.775Z,0
2023-01-01T01:52:37.589Z,0
2023-01-01T01:53:39.074Z,0
2023-01-01T01:54:39.045Z,0
2023-01-01T01:55:38.946Z,0
2023-01-01T01:56:40.193Z,0
2023-01-01T01:57:41.159Z,0
2023-01-01T01:58:41.665Z,0
2023-01-01T01:59:41.865Z,0
2023-01-01T02:00:42.370Z,0
2023-01-01T02:01:43.251Z,0
2023-01-01T02:02:44.179Z,0
2023-01-01T02:03:43.397Z,0
2023-01-01T02:04:43.045Z,0
2023-01-01T02:05:43.993Z,0
2023-01-01T02:06:44.375Z,0
2023-01-01T02:07:45.060Z,0
2023-01-01T02:08:45.709Z,0
2023-01-01T02:09:46.648Z,0
2023-01-01T02:10:47.291Z,0
2023-01-01T02:11:48.222Z,0
2023-01-01T02:12:49.294Z,0
2023-01-01T02:13:50.214Z,0
2023-01-01T02:14:51.149Z,0
2023-01-01T02:15:51.443Z,0
2023-01-01T02:16:51.721Z,0
2023-01-01T02:17:55.814Z,0
2023-01-01T02:18:53.035Z,0
2023-01-01T02:19:52.727Z,0
2023-01-01T02:20:53.971Z,0
2023-01-01T02:21:53.900Z,0
2023-01-01T02:22:57.883Z,0
2023-01-01T02:23:55.389Z,0
2023-01-01T02:24:56.012Z,0
2023-01-01T02:25:57.231Z,0
2023-01-01T02:26:57.460Z,0
2023-01-01T02:27:57.713Z,0
2023-01-01T02:28:58.216Z,0
2023-01-01T02:29:58.713Z,0
2023-01-01T02:30:59.355Z,0
2023-01-01T02:31:59.739Z,0
2023-01-01T02:33:00.396Z,0
2023-01-01T02:34:00.597Z,0
2023-01-01T02:35:01.098Z,0
2023-01-01T02:36:01.343Z,0
2023-01-01T02:37:01.547Z,0
2023-01-01T02:38:02.275Z,0
2023-01-01T02:39:03.485Z,0
2023-01-01T02:40:03.566Z,0
2023-01-01T02:41:04.207Z,0
2023-01-01T02:42:05.176Z,0
2023-01-01T02:43:06.790Z,0
2023-01-01T02:44:07.527Z,0
2023-01-01T02:45:07.737Z,0
2023-01-01T02:46:08.088Z,0
2023-01-01T02:47:08.477Z,0
2023-01-01T02:48:09.729Z,0
2023-01-01T02:49:20.764Z,0
2023-01-01T02:50:10.795Z,0
2023-01-01T02:51:12.333Z,0
2023-01-01T02:52:11.971Z,0
2023-01-01T02:53:13.636Z,0
2023-01-01T02:54:13.289Z,0
2023-01-01T02:55:14.504Z,0
2023-01-01T02:56:14.132Z,0
2023-01-01T02:57:15.346Z,0
2023-01-01T02:58:15.863Z,0
2023-01-01T02:59:15.542Z,0
2023-01-01T03:00:16.471Z,0
2023-01-01T03:01:17.364Z,0
2023-01-01T03:02:18.408Z,0
2023-01-01T03:03:19.243Z,0
2023-01-01T03:04:18.192Z,0
2023-01-01T03:05:19.141Z,0
2023-01-01T03:06:19.836Z,0
2023-01-01T03:07:20.800Z,0
2023-01-01T03:08:21.077Z,0
2023-01-01T03:09:20.991Z,0
2023-01-01T03:10:22.519Z,0
2023-01-01T03:11:22.464Z,0
2023-01-01T03:12:22.821Z,0
2023-01-01T03:13:23.910Z,0
2023-01-01T03:14:23.827Z,0
2023-01-01T03:15:24.196Z,0
2023-01-01T03:16:26.436Z,0
2023-01-01T03:17:26.697Z,0
2023-01-01T03:18:26.916Z,0
2023-01-01T03:19:28.157Z,0
2023-01-01T03:20:28.100Z,0
2023-01-01T03:21:28.739Z,0
2023-01-01T03:22:29.098Z,0
2023-01-01T03:23:30.425Z,0
2023-01-01T03:24:30.630Z,0
2023-01-01T03:25:31.567Z,0
2023-01-01T03:26:31.963Z,0
2023-01-01T03:27:33.478Z,0
2023-01-01T03:28:33.709Z,0
2023-01-01T03:29:33.942Z,0
2023-01-01T03:30:34.581Z,0
2023-01-01T03:31:34.794Z,0
2023-01-01T03:32:34.777Z,0
2023-01-01T03:33:36.398Z,0
2023-01-01T03:34:36.338Z,0
2023-01-01T03:35:37.279Z,0
2023-01-01T03:36:38.798Z,0
2023-01-01T03:37:39.091Z,0
2023-01-01T03:38:39.056Z,0
2023-01-01T03:39:40.000Z,0
2023-01-01T03:40:41.234Z,0
2023-01-01T03:41:42.512Z,0
2023-01-01T03:42:43.027Z,0
2023-01-01T03:43:43.346Z,0
2023-01-01T03:44:43.313Z,0
2023-01-01T03:45:44.533Z,0
2023-01-01T03:46:45.262Z,0
2023-01-01T03:47:44.965Z,0
2023-01-01T03:48:45.922Z,0
2023-01-01T03:49:46.643Z,0
2023-01-01T03:50:47.849Z,0
2023-01-01T03:51:48.074Z,0
2023-01-01T03:52:47.715Z,0
2023-01-01T03:53:48.533Z,0
2023-01-01T03:54:53.701Z,0
2023-01-01T03:55:50.137Z,0
2023-01-01T03:56:51.084Z,0
2023-01-01T03:57:51.604Z,0
2023-01-01T03:58:51.568Z,0
2023-01-01T03:59:51.781Z,0
2023-01-01T04:00:51.995Z,0
2023-01-01T04:01:53.602Z,0
2023-01-01T04:02:54.478Z,0
2023-01-01T04:03:54.930Z,0
2023-01-01T04:04:55.156Z,0
2023-01-01T04:05:55.866Z,0
2023-01-01T04:06:56.831Z,0
2023-01-01T04:07:56.142Z,0
2023-01-01T04:08:57.093Z,0
2023-01-01T04:09:58.289Z,0
2023-01-01T04:10:58.785Z,0
2023-01-01T04:11:58.722Z,0
2023-01-01T04:12:58.954Z,0
2023-01-01T04:13:59.304Z,0
2023-01-01T04:14:59.223Z,0
2023-01-01T04:16:00.915Z,0
2023-01-01T04:17:01.428Z,0
2023-01-01T04:18:01.167Z,0
2023-01-01T04:19:01.546Z,0
2023-01-01T04:20:09.139Z,0
2023-01-01T04:21:03.066Z,0
2023-01-01T04:22:04.605Z,0
2023-01-01T04:23:03.970Z,0
2023-01-01T04:24:04.700Z,0
2023-01-01T04:25:05.623Z,0
2023-01-01T04:26:06.531Z,0
2023-01-01T04:27:07.178Z,0
2023-01-01T04:28:08.105Z,0
2023-01-01T04:29:09.032Z,0
2023-01-01T04:30:09.963Z,0
2023-01-01T04:31:10.559Z,0
2023-01-01T04:32:11.229Z,0
2023-01-01T04:33:11.920Z,0
2023-01-01T04:34:13.389Z,0
2023-01-01T04:35:13.592Z,0
2023-01-01T04:36:14.527Z,0
2023-01-01T04:37:24.086Z,0
2023-01-01T04:38:14.727Z,0
2023-01-01T04:39:15.737Z,0
2023-01-01T04:40:16.796Z,0
2023-01-01T04:41:18.294Z,0
2023-01-01T04:42:18.272Z,0
2023-01-01T04:43:18.482Z,0
2023-01-01T04:44:19.014Z,0
2023-01-01T04:45:20.736Z,0
2023-01-01T04:46:20.918Z,0
2023-01-01T04:47:21.157Z,0
2023-01-01T04:48:22.145Z,0
2023-01-01T04:49:22.398Z,0
2023-01-01T04:50:22.613Z,0
2023-01-01T04:51:23.115Z,0
2023-01-01T04:52:23.066Z,0
2023-01-01T04:53:24.032Z,0
2023-01-01T04:54:24.514Z,0
2023-01-01T04:55:24.748Z,0
2023-01-01T04:56:25.232Z,0
2023-01-01T04:57:24.887Z,0
2023-01-01T04:58:25.531Z,0
2023-01-01T04:59:26.781Z,0
2023-01-01T05:00:27.006Z,0
2023-01-01T05:01:27.856Z,0
2023-01-01T05:02:28.919Z,0
2023-01-01T05:03:29.213Z,0
2023-01-01T05:04:29.268Z,0
2023-01-01T05:05:30.530Z,0
2023-01-01T05:06:30.805Z,0
2023-01-01T05:07:30.767Z,0
2023-01-01T05:08:31.745Z,0
2023-01-01T05:09:33.004Z,0
2023-01-01T05:10:33.319Z,0
2023-01-01T05:11:33.557Z,0
2023-01-01T05:12:33.473Z,0
2023-01-01T05:13:34.399Z,0
2023-01-01T05:14:35.835Z,0
2023-01-01T05:15:36.041Z,0
2023-01-01T05:16:36.860Z,0
2023-01-01T05:17:36.800Z,0
2023-01-01T05:18:38.320Z,0
2023-01-01T05:19:38.850Z,0
2023-01-01T05:20:38.800Z,0
2023-01-01T05:21:39.474Z,0
2023-01-01T05:22:40.682Z,0
2023-01-01T05:23:41.508Z,0
2023-01-01T05:24:41.555Z,0
2023-01-01T05:25:42.766Z,0
2023-01-01T05:26:42.974Z,0
2023-01-01T05:27:43.809Z,0
2023-01-01T05:28:44.321Z,0
2023-01-01T05:29:44.866Z,0
2023-01-01T05:30:45.102Z,0
2023-01-01T05:31:45.868Z,0
2023-01-01T05:32:45.852Z,0
2023-01-01T05:33:46.827Z,0
2023-01-01T05:34:46.552Z,0
2023-01-01T05:35:47.504Z,0
2023-01-01T05:36:47.470Z,0
2023-01-01T05:37:48.404Z,0
2023-01-01T05:38:49.919Z,0
2023-01-01T05:39:49.853Z,0
2023-01-01T05:40:51.080Z,0
2023-01-01T05:41:51.328Z,0
2023-01-01T05:42:51.536Z,0
2023-01-01T05:43:52.449Z,0
2023-01-01T05:44:53.462Z,0
2023-01-01T05:45:54.144Z,0
2023-01-01T05:46:54.443Z,0
2023-01-01T05:47:54.676Z,0
2023-01-01T05:48:55.362Z,0
2023-01-01T05:49:56.297Z,0
2023-01-01T05:50:57.816Z,0
2023-01-01T05:51:57.437Z,0
2023-01-01T05:52:58.088Z,0
2023-01-01T05:53:59.102Z,0
2023-01-01T05:54:58.905Z,0
2023-01-01T05:56:00.137Z,0
2023-01-01T05:57:00.808Z,0
2023-01-01T05:58:02.331Z,0
2023-01-01T05:59:02.291Z,0
2023-01-01T06:00:02.245Z,0
2023-01-01T06:01:03.278Z,0
2023-01-01T06:02:05.306Z,0
2023-01-01T06:03:05.802Z,0
2023-01-01T06:04:06.314Z,0
2023-01-01T06:05:07.037Z,0
2023-01-01T06:06:06.963Z,0
2023-01-01T06:07:07.917Z,0
2023-01-01T06:08:09.130Z,0
2023-01-01T06:09:09.110Z,0
2023-01-01T06:10:10.057Z,0
2023-01-01T06:11:10.980Z,0
2023-01-01T06:12:11.899Z,0
2023-01-01T06:13:19.097Z,0
2023-01-01T06:14:13.628Z,0
2023-01-01T06:15:13.972Z,0
2023-01-01T06:16:14.382Z,0
2023-01-01T06:17:15.132Z,0
2023-01-01T06:18:15.071Z,0
2023-01-01T06:19:15.750Z,0
2023-01-01T06:20:15.987Z,0
2023-01-01T06:21:16.215Z,0
2023-01-01T06:22:16.444Z,0
2023-01-01T06:23:17.101Z,0
2023-01-01T06:24:18.321Z,0
2023-01-01T06:25:18.631Z,0
2023-01-01T06:26:18.953Z,0
2023-01-01T06:27:19.907Z,0
2023-01-01T06:28:20.414Z,0
2023-01-01T06:29:20.371Z,0
2023-01-01T06:30:21.115Z,0
2023-01-01T06:31:22.965Z,0
2023-01-01T06:32:22.936Z,0
2023-01-01T06:33:23.452Z,0
2023-01-01T06:34:23.719Z,0
2023-01-01T06:35:24.051Z,0
2023-01-01T06:36:24.581Z,0
2023-01-01T06:37:23.944Z,0
2023-01-01T06:38:25.142Z,0
2023-01-01T06:39:25.387Z,0
2023-01-01T06:40:26.068Z,0
2023-01-01T06:41:27.025Z,0
2023-01-01T06:42:33.646Z,0
2023-01-01T06:43:28.714Z,0
2023-01-01T06:44:29.206Z,0
2023-01-01T06:45:29.809Z,0
2023-01-01T06:46:30.468Z,0
2023-01-01T06:47:30.377Z,0
2023-01-01T06:48:31.052Z,0
2023-01-01T06:49:32.297Z,0
2023-01-01T06:50:32.941Z,0
2023-01-01T06:51:33.904Z,0
2023-01-01T06:52:34.810Z,0
2023-01-01T06:53:35.763Z,0
2023-01-01T06:54:37.312Z,0
2023-01-01T06:55:37.093Z,0
2023-01-01T06:56:38.298Z,0
2023-01-01T06:57:38.794Z,0
2023-01-01T06:58:38.721Z,0
2023-01-01T06:59:40.209Z,0
2023-01-01T07:00:40.443Z,0
2023-01-01T07:01:44.274Z,0
2023-01-01T07:02:42.382Z,0
2023-01-01T07:03:43.283Z,5.63
2023-01-01T07:04:43.557Z,5.63
2023-01-01T07:05:44.290Z,5.63
2023-01-01T07:06:44.858Z,5.63
2023-01-01T07:07:52.517Z,5.63
2023-01-01T07:08:45.237Z,5.63
2023-01-01T07:09:46.508Z,5.63
2023-01-01T07:10:46.464Z,5.63
2023-01-01T07:11:48.011Z,5.63
2023-01-01T07:12:47.967Z,5.63
2023-01-01T07:13:47.938Z,5.63
2023-01-01T07:14:48.563Z,5.63
2023-01-01T07:15:49.709Z,11.25
2023-01-01T07:16:50.637Z,11.25
2023-01-01T07:17:51.284Z,11.25
2023-01-01T07:18:52.230Z,11.25
2023-01-01T07:19:52.479Z,11.25
2023-01-01T07:20:52.706Z,11.25
2023-01-01T07:21:53.640Z,11.25
2023-01-01T07:22:53.577Z,11.25
2023-01-01T07:23:54.201Z,11.25
2023-01-01T07:24:55.448Z,11.25
2023-01-01T07:25:55.766Z,11.25
2023-01-01T07:26:55.755Z,11.25
2023-01-01T07:27:56.753Z,16.88
2023-01-01T07:29:02.725Z,16.88
2023-01-01T07:29:57.792Z,16.88
2023-01-01T07:30:58.491Z,16.88
2023-01-01T07:31:59.827Z,16.88
2023-01-01T07:33:00.030Z,16.88
2023-01-01T07:34:00.261Z,16.88
2023-01-01T07:35:07.497Z,16.88
2023-01-01T07:36:01.896Z,22.5
2023-01-01T07:37:02.423Z,22.5
2023-01-01T07:38:02.350Z,22.5
2023-01-01T07:39:03.610Z,22.5
2023-01-01T07:40:04.979Z,22.5
2023-01-01T07:41:04.689Z,22.5
2023-01-01T07:42:11.011Z,22.5
2023-01-01T07:43:06.048Z,28.13
2023-01-01T07:44:07.014Z,28.13
2023-01-01T07:45:07.723Z,28.13
2023-01-01T07:46:08.700Z,28.13
2023-01-01T07:47:09.255Z,28.13
2023-01-01T07:48:08.917Z,33.75
2023-01-01T07:49:10.208Z,33.75
2023-01-01T07:50:09.882Z,33.75
2023-01-01T07:51:11.117Z,50.63
2023-01-01T07:52:11.349Z,67.5
2023-01-01T07:53:11.708Z,118.13
2023-01-01T07:54:19.285Z,174.38
2023-01-01T07:55:13.276Z,151.88
2023-01-01T07:56:13.655Z,151.88
2023-01-01T07:57:13.290Z,180
2023-01-01T07:58:14.827Z,191.25
2023-01-01T07:59:20.250Z,202.5
2023-01-01T08:00:15.361Z,219.38
2023-01-01T08:01:16.772Z,225
2023-01-01T08:02:17.661Z,236.25
2023-01-01T08:03:18.202Z,208.13
2023-01-01T08:04:17.922Z,129.38
2023-01-01T08:05:24.368Z,67.5
2023-01-01T08:06:19.777Z,67.5
2023-01-01T08:07:20.304Z,84.38
2023-01-01T08:08:20.805Z,123.75
2023-01-01T08:09:20.771Z,163.13
2023-01-01T08:10:21.072Z,219.38
2023-01-01T08:11:21.866Z,270
2023-01-01T08:12:23.105Z,264.38
2023-01-01T08:13:22.733Z,241.88
2023-01-01T08:14:23.078Z,202.5
2023-01-01T08:15:24.293Z,112.5
2023-01-01T08:16:25.429Z,67.5
2023-01-01T08:17:25.357Z,61.88
2023-01-01T08:18:26.279Z,61.88
2023-01-01T08:19:27.216Z,61.88
2023-01-01T08:20:27.144Z,61.88
2023-01-01T08:21:28.389Z,78.75
2023-01-01T08:22:29.635Z,118.13
2023-01-01T08:23:30.172Z,168.75
2023-01-01T08:24:30.117Z,315
2023-01-01T08:25:30.644Z,421.88
2023-01-01T08:26:29.850Z,331.88
2023-01-01T08:27:30.789Z,213.75
2023-01-01T08:28:31.521Z,213.75
2023-01-01T08:29:32.765Z,151.88
2023-01-01T08:30:33.816Z,90
2023-01-01T08:31:34.749Z,67.5
2023-01-01T08:32:35.277Z,73.13
2023-01-01T08:33:35.211Z,67.5
2023-01-01T08:34:36.167Z,67.5
2023-01-01T08:35:37.400Z,67.5
2023-01-01T08:36:38.820Z,67.5
2023-01-01T08:37:38.501Z,67.5
2023-01-01T08:38:39.737Z,73.13
2023-01-01T08:39:40.100Z,95.63
2023-01-01T08:40:41.061Z,84.38
2023-01-01T08:41:41.711Z,90
2023-01-01T08:42:42.199Z,135
2023-01-01T08:43:41.868Z,129.38
2023-01-01T08:44:42.797Z,118.13
2023-01-01T08:45:43.026Z,281.25
2023-01-01T08:46:43.772Z,438.75
2023-01-01T08:47:43.725Z,416.25
2023-01-01T08:48:47.644Z,303.75
2023-01-01T08:49:45.886Z,247.5
2023-01-01T08:50:46.126Z,135
2023-01-01T08:51:46.408Z,106.88
2023-01-01T08:52:47.672Z,202.5
2023-01-01T08:53:53.930Z,264.38
2023-01-01T08:54:47.884Z,270
2023-01-01T08:55:49.414Z,315
2023-01-01T08:56:49.350Z,433.13
2023-01-01T08:57:50.876Z,393.75
2023-01-01T08:58:51.106Z,191.25
2023-01-01T08:59:52.084Z,95.63
2023-01-01T09:00:52.331Z,191.25
2023-01-01T09:01:53.987Z,382.5
2023-01-01T09:02:53.890Z,551.25
2023-01-01T09:03:53.973Z,669.38
2023-01-01T09:04:54.332Z,720
2023-01-01T09:05:55.287Z,618.75
2023-01-01T09:06:55.782Z,450
2023-01-01T09:07:57.001Z,174.38
2023-01-01T09:08:57.711Z,95.63
2023-01-01T09:09:58.365Z,95.63
2023-01-01T09:10:59.029Z,180
2023-01-01T09:12:00.008Z,281.25
2023-01-01T09:13:01.524Z,241.88
2023-01-01T09:14:01.191Z,208.13
2023-01-01T09:15:02.692Z,258.75
2023-01-01T09:16:02.693Z,281.25
2023-01-01T09:17:03.163Z,360
2023-01-01T09:18:03.826Z,360
2023-01-01T09:19:05.349Z,348.75
2023-01-01T09:20:04.731Z,275.63
2023-01-01T09:21:06.261Z,253.13
2023-01-01T09:22:06.551Z,309.38
2023-01-01T09:23:16.738Z,286.88
2023-01-01T09:24:07.976Z,399.38
2023-01-01T09:25:08.711Z,438.75
2023-01-01T09:26:09.669Z,365.63
2023-01-01T09:27:10.434Z,393.75
2023-01-01T09:28:11.370Z,630
2023-01-01T09:29:12.593Z,703.13
2023-01-01T09:30:12.318Z,635.63
2023-01-01T09:31:13.444Z,613.13
2023-01-01T09:32:13.979Z,450
2023-01-01T09:33:13.927Z,241.88
2023-01-01T09:34:15.164Z,247.5
2023-01-01T09:35:15.109Z,455.63
2023-01-01T09:36:16.048Z,354.38
2023-01-01T09:37:16.122Z,450
2023-01-01T09:38:17.130Z,708.75
2023-01-01T09:39:17.807Z,871.88
2023-01-01T09:40:18.754Z,703.13
2023-01-01T09:41:19.088Z,590.63
2023-01-01T09:42:19.059Z,787.5
2023-01-01T09:43:20.281Z,826.88
2023-01-01T09:44:20.796Z,1035
2023-01-01T09:45:20.731Z,1057.5
2023-01-01T09:46:25.076Z,697.5
2023-01-01T09:47:22.309Z,455.63
2023-01-01T09:48:23.536Z,624.38
2023-01-01T09:49:24.482Z,894.38
2023-01-01T09:50:24.752Z,843.75
2023-01-01T09:51:24.544Z,877.5
2023-01-01T09:52:25.514Z,714.38
2023-01-01T09:53:26.778Z,309.38
2023-01-01T09:54:26.731Z,466.88
2023-01-01T09:55:27.692Z,652.5
2023-01-01T09:56:27.923Z,843.75
2023-01-01T09:57:36.040Z,1040.63
2023-01-01T09:58:28.963Z,911.25
2023-01-01T09:59:29.908Z,798.75
2023-01-01T10:00:30.267Z,680.63
2023-01-01T10:01:31.549Z,472.5
2023-01-01T10:02:31.992Z,416.25
2023-01-01T10:03:32.214Z,697.5
2023-01-01T10:04:32.596Z,765
2023-01-01T10:05:32.739Z,455.63
2023-01-01T10:06:33.231Z,241.88
2023-01-01T10:07:33.580Z,455.63
2023-01-01T10:08:40.159Z,742.5
2023-01-01T10:09:34.123Z,770.63
2023-01-01T10:10:34.912Z,663.75
2023-01-01T10:11:36.201Z,472.5
2023-01-01T10:12:36.879Z,663.75
2023-01-01T10:13:38.445Z,1102.5
2023-01-01T10:14:38.114Z,1091.25
2023-01-01T10:15:38.488Z,1091.25
2023-01-01T10:16:41.376Z,1271.25
2023-01-01T10:17:40.381Z,1372.5
2023-01-01T10:18:41.785Z,1361.25
2023-01-01T10:19:41.706Z,1220.63
2023-01-01T10:20:42.648Z,1198.13
2023-01-01T10:21:48.976Z,1248.75
2023-01-01T10:22:44.221Z,1186.88
2023-01-01T10:23:44.170Z,1051.88
2023-01-01T10:24:45.405Z,1102.5
2023-01-01T10:25:46.055Z,1243.13
2023-01-01T10:26:47.318Z,1231.88
2023-01-01T10:27:51.315Z,1226.25
2023-01-01T10:28:48.535Z,1327.5
2023-01-01T10:29:50.250Z,1462.5
2023-01-01T10:30:50.234Z,1350
2023-01-01T10:31:50.493Z,1226.25
2023-01-01T10:32:51.063Z,1080
2023-01-01T10:33:50.990Z,1147.5
2023-01-01T10:34:52.228Z,1243.13
2023-01-01T10:35:52.457Z,1063.13
2023-01-01T10:36:52.678Z,1102.5
2023-01-01T10:37:52.819Z,1091.25
2023-01-01T10:38:53.853Z,916.88
2023-01-01T10:39:54.812Z,922.5
2023-01-01T10:40:55.759Z,961.88
2023-01-01T10:41:56.763Z,1125
2023-01-01T10:42:57.435Z,1158.75
2023-01-01T10:43:58.989Z,1153.13
2023-01-01T10:44:59.205Z,1181.25
2023-01-01T10:45:59.461Z,1164.38
2023-01-01T10:46:59.703Z,1248.75
2023-01-01T10:48:00.773Z,1518.75
2023-01-01T10:49:00.724Z,1541.25
2023-01-01T10:50:01.669Z,1400.63
2023-01-01T10:51:02.331Z,1316.25
2023-01-01T10:52:02.843Z,1383.75
2023-01-01T10:53:03.373Z,1361.25
2023-01-01T10:54:03.336Z,1248.75
2023-01-01T10:55:03.579Z,1209.38
2023-01-01T10:56:04.583Z,1170
2023-01-01T10:57:05.823Z,1147.5
2023-01-01T10:58:05.913Z,1091.25
2023-01-01T10:59:06.328Z,1186.88
2023-01-01T11:00:10.454Z,1158.75
2023-01-01T11:01:08.331Z,1220.63
2023-01-01T11:02:09.769Z,1350
2023-01-01T11:03:08.713Z,1271.25
2023-01-01T11:04:09.276Z,1276.88
2023-01-01T11:05:21.015Z,1215
2023-01-01T11:06:10.001Z,1136.25
2023-01-01T11:07:10.922Z,1136.25
2023-01-01T11:08:12.093Z,1018.13
2023-01-01T11:09:13.056Z,877.5
2023-01-01T11:10:19.492Z,815.63
2023-01-01T11:11:13.748Z,759.38
2023-01-01T11:13:14.694Z,1096.88
2023-01-01T11:13:31.645Z,1125
2023-01-01T11:14:32.890Z,956.25
2023-01-01T11:15:33.123Z,720
2023-01-01T11:16:33.581Z,826.88
2023-01-01T11:17:33.594Z,1096.88
2023-01-01T11:18:33.866Z,1231.88
2023-01-01T11:19:34.820Z,1181.25
2023-01-01T11:20:36.049Z,1141.88
2023-01-01T11:21:36.004Z,1186.88
2023-01-01T11:22:37.290Z,1119.38
2023-01-01T11:23:37.903Z,1051.88
2023-01-01T11:24:38.170Z,793.13
2023-01-01T11:25:38.133Z,534.38
2023-01-01T11:26:39.073Z,635.63
2023-01-01T11:27:39.496Z,1074.38
2023-01-01T11:28:40.787Z,1305
2023-01-01T11:29:40.579Z,1248.75
2023-01-01T11:30:41.977Z,1248.75
2023-01-01T11:31:41.942Z,1220.63
2023-01-01T11:32:42.901Z,1203.75
2023-01-01T11:33:43.578Z,1231.88
2023-01-01T11:34:44.259Z,911.25
2023-01-01T11:35:43.951Z,613.13
2023-01-01T11:36:44.960Z,646.88
2023-01-01T11:37:45.599Z,354.38
2023-01-01T11:38:47.422Z,264.38
2023-01-01T11:39:47.754Z,270
2023-01-01T11:40:47.712Z,635.63
2023-01-01T11:41:47.993Z,961.88
2023-01-01T11:42:48.714Z,826.88
2023-01-01T11:43:49.682Z,478.13
2023-01-01T11:44:50.979Z,247.5
2023-01-01T11:45:54.242Z,230.63
2023-01-01T11:46:51.647Z,236.25
2023-01-01T11:47:51.581Z,371.25
2023-01-01T11:48:52.646Z,652.5
2023-01-01T11:49:53.310Z,731.25
2023-01-01T11:50:59.634Z,697.5
2023-01-01T11:51:54.997Z,607.5
2023-01-01T11:52:56.228Z,309.38
2023-01-01T11:53:57.478Z,382.5
2023-01-01T11:54:58.007Z,601.88
2023-01-01T11:55:58.288Z,579.38
2023-01-01T11:56:58.236Z,517.5
2023-01-01T11:57:58.608Z,495
2023-01-01T11:58:59.798Z,416.25
2023-01-01T12:00:00.464Z,360
2023-01-01T12:01:01.800Z,540
2023-01-01T12:02:01.982Z,663.75
2023-01-01T12:03:02.655Z,630
2023-01-01T12:04:04.192Z,680.63
2023-01-01T12:05:03.919Z,472.5
2023-01-01T12:06:05.442Z,472.5
2023-01-01T12:07:05.683Z,748.13
2023-01-01T12:08:06.197Z,781.88
2023-01-01T12:09:06.544Z,618.75
2023-01-01T12:10:06.962Z,433.13
2023-01-01T12:11:07.224Z,410.63
2023-01-01T12:12:07.752Z,410.63
2023-01-01T12:13:07.983Z,450
2023-01-01T12:14:09.310Z,500.63
2023-01-01T12:15:09.265Z,590.63
2023-01-01T12:16:10.782Z,613.13
2023-01-01T12:17:10.784Z,658.13
2023-01-01T12:18:11.759Z,708.75
2023-01-01T12:19:12.262Z,618.75
2023-01-01T12:20:12.200Z,545.63
2023-01-01T12:21:13.153Z,500.63
2023-01-01T12:22:14.391Z,585
2023-01-01T12:23:15.056Z,635.63
2023-01-01T12:24:16.288Z,686.25
2023-01-01T12:25:16.389Z,742.5
2023-01-01T12:26:16.478Z,697.5
2023-01-01T12:27:24.930Z,556.88
2023-01-01T12:28:18.154Z,421.88
2023-01-01T12:29:18.927Z,472.5
2023-01-01T12:30:20.485Z,472.5
2023-01-01T12:31:21.165Z,472.5
2023-01-01T12:32:20.547Z,461.25
2023-01-01T12:33:25.455Z,506.25
2023-01-01T12:34:23.439Z,534.38
2023-01-01T12:35:24.125Z,495
2023-01-01T12:36:25.054Z,551.25
2023-01-01T12:37:26.315Z,652.5
2023-01-01T12:38:26.825Z,686.25
2023-01-01T12:39:27.480Z,658.13
2023-01-01T12:40:36.424Z,556.88
2023-01-01T12:41:28.387Z,630
2023-01-01T12:42:29.320Z,607.5
2023-01-01T12:43:30.260Z,568.13
2023-01-01T12:44:30.544Z,506.25
2023-01-01T12:45:36.673Z,444.38
2023-01-01T12:46:31.192Z,393.75
2023-01-01T12:47:31.145Z,365.63
2023-01-01T12:48:31.894Z,337.5
2023-01-01T12:49:32.394Z,354.38
2023-01-01T12:50:33.641Z,343.13
2023-01-01T12:51:33.877Z,320.63
2023-01-01T12:52:34.428Z,348.75
2023-01-01T12:53:34.666Z,365.63
2023-01-01T12:54:35.372Z,303.75
2023-01-01T12:55:36.652Z,219.38
2023-01-01T12:56:40.077Z,168.75
2023-01-01T12:57:37.290Z,180
2023-01-01T12:58:37.225Z,202.5
2023-01-01T12:59:38.668Z,219.38
2023-01-01T13:00:39.944Z,225
2023-01-01T13:01:47.506Z,225
2023-01-01T13:02:42.262Z,202.5
2023-01-01T13:03:42.114Z,185.63
2023-01-01T13:04:41.669Z,180
2023-01-01T13:05:41.344Z,236.25
2023-01-01T13:06:45.200Z,292.5
2023-01-01T13:07:42.989Z,264.38
2023-01-01T13:08:44.221Z,241.88
2023-01-01T13:09:44.574Z,298.13
2023-01-01T13:10:44.810Z,326.25
2023-01-01T13:11:56.043Z,281.25
2023-01-01T13:12:46.001Z,270
2023-01-01T13:13:46.962Z,264.38
2023-01-01T13:14:48.233Z,275.63
2023-01-01T13:15:48.862Z,281.25
2023-01-01T13:16:49.267Z,230.63
2023-01-01T13:17:50.495Z,225
2023-01-01T13:18:50.445Z,264.38
2023-01-01T13:19:51.016Z,264.38
2023-01-01T13:20:51.232Z,236.25
2023-01-01T13:21:52.236Z,225
2023-01-01T13:22:52.751Z,230.63
2023-01-01T13:23:53.267Z,225
2023-01-01T13:24:53.499Z,219.38
2023-01-01T13:25:53.739Z,219.38
2023-01-01T13:26:53.717Z,219.38
2023-01-01T13:27:55.234Z,247.5
2023-01-01T13:28:55.218Z,270
2023-01-01T13:29:56.293Z,253.13
2023-01-01T13:30:56.310Z,258.75
2023-01-01T13:31:56.829Z,281.25
2023-01-01T13:32:56.489Z,281.25
2023-01-01T13:33:57.409Z,292.5
2023-01-01T13:34:58.424Z,298.13
2023-01-01T13:35:59.678Z,247.5
2023-01-01T13:36:59.976Z,213.75
2023-01-01T13:37:59.934Z,213.75
2023-01-01T13:38:59.910Z,241.88
2023-01-01T13:40:00.421Z,258.75
2023-01-01T13:41:00.972Z,247.5
2023-01-01T13:42:01.248Z,241.88
2023-01-01T13:43:07.756Z,236.25
2023-01-01T13:44:02.601Z,225
2023-01-01T13:45:04.156Z,208.13
2023-01-01T13:46:34.301Z,208.13
2023-01-01T13:47:04.569Z,202.5
2023-01-01T13:48:05.809Z,213.75
2023-01-01T13:49:12.795Z,213.75
2023-01-01T13:50:07.483Z,247.5